sensor_id;sensor_type;location;lat;lon;timestamp;temperature;humidity
24412;DHT22;12544;46.760;15.942;2023-09-19T00:00:30;20.80;99.90
24412;DHT22;12544;46.760;15.942;2023-09-19T00:02:57;20.70;99.90
24412;DHT22;12544;46.760;15.942;2023-09-19T00:05:28;20.70;99.90
24412;DHT22;12544;46.760;15.942;2023-09-19T00:07:55;20.70;99.90
24412;DHT22;12544;46.760;15.942;2023-09-19T00:10:25;20.60;99.90
24412;DHT22;12544;46.760;15.942;2023-09-19T00:12:53;20.60;99.90
24412;DHT22;12544;46.760;15.942;2023-09-19T00:15:23;20.60;99.90
24412;DHT22;12544;46.760;15.942;2023-09-19T00:17:48;20.60;99.90
24412;DHT22;12544;46.760;15.942;2023-09-19T00:20:14;20.50;99.90
24412;DHT22;12544;46.760;15.942;2023-09-19T00:22:43;20.50;99.90
24412;DHT22;12544;46.760;15.942;2023-09-19T00:25:09;20.50;99.90
24412;DHT22;12544;46.760;15.942;2023-09-19T00:27:35;20.50;99.90
24412;DHT22;12544;46.760;15.942;2023-09-19T00:30:07;20.60;99.90
24412;DHT22;12544;46.760;15.942;2023-09-19T00:32:34;20.60;99.90
24412;DHT22;12544;46.760;15.942;2023-09-19T00:35:00;20.60;99.90
24412;DHT22;12544;46.760;15.942;2023-09-19T00:37:26;20.50;99.90
24412;DHT22;12544;46.760;15.942;2023-09-19T00:39:51;20.40;99.90
24412;DHT22;12544;46.760;15.942;2023-09-19T00:42:20;20.40;99.90
24412;DHT22;12544;46.760;15.942;2023-09-19T00:44:47;20.30;99.90
24412;DHT22;12544;46.760;15.942;2023-09-19T00:47:12;20.30;99.90
24412;DHT22;12544;46.760;15.942;2023-09-19T00:49:44;20.20;99.90
24412;DHT22;12544;46.760;15.942;2023-09-19T00:52:11;20.20;99.90
24412;DHT22;12544;46.760;15.942;2023-09-19T00:54:37;20.10;99.90
24412;DHT22;12544;46.760;15.942;2023-09-19T00:57:03;20.10;99.90
24412;DHT22;12544;46.760;15.942;2023-09-19T00:59:29;20.10;99.90
24412;DHT22;12544;46.760;15.942;2023-09-19T01:01:56;20.00;99.90
24412;DHT22;12544;46.760;15.942;2023-09-19T01:04:22;20.00;99.90
24412;DHT22;12544;46.760;15.942;2023-09-19T01:06:49;20.00;99.90
24412;DHT22;12544;46.760;15.942;2023-09-19T01:09:19;20.00;99.90
24412;DHT22;12544;46.760;15.942;2023-09-19T01:11:48;20.00;99.90
24412;DHT22;12544;46.760;15.942;2023-09-19T01:14:44;20.00;99.90
24412;DHT22;12544;46.760;15.942;2023-09-19T01:17:26;20.00;99.90
24412;DHT22;12544;46.760;15.942;2023-09-19T01:20:11;19.90;99.90
24412;DHT22;12544;46.760;15.942;2023-09-19T01:31:21;19.90;99.90
24412;DHT22;12544;46.760;15.942;2023-09-19T01:33:59;19.90;99.90
24412;DHT22;12544;46.760;15.942;2023-09-19T01:36:30;19.90;99.90
24412;DHT22;12544;46.760;15.942;2023-09-19T01:38:57;20.00;99.90
24412;DHT22;12544;46.760;15.942;2023-09-19T01:44:44;20.20;99.90
24412;DHT22;12544;46.760;15.942;2023-09-19T01:47:34;20.20;99.90
24412;DHT22;12544;46.760;15.942;2023-09-19T01:50:17;20.20;99.90
24412;DHT22;12544;46.760;15.942;2023-09-19T01:52:54;20.30;99.90
24412;DHT22;12544;46.760;15.942;2023-09-19T01:55:22;20.30;99.90
24412;DHT22;12544;46.760;15.942;2023-09-19T02:00:26;20.20;99.90
24412;DHT22;12544;46.760;15.942;2023-09-19T02:02:53;20.20;99.90
24412;DHT22;12544;46.760;15.942;2023-09-19T02:05:25;20.20;99.90
24412;DHT22;12544;46.760;15.942;2023-09-19T02:07:52;20.10;99.90
24412;DHT22;12544;46.760;15.942;2023-09-19T02:10:19;20.10;99.90
24412;DHT22;12544;46.760;15.942;2023-09-19T02:12:44;20.10;99.90
24412;DHT22;12544;46.760;15.942;2023-09-19T02:15:10;20.10;99.90
24412;DHT22;12544;46.760;15.942;2023-09-19T02:17:36;20.10;99.90
24412;DHT22;12544;46.760;15.942;2023-09-19T02:20:02;20.10;99.90
24412;DHT22;12544;46.760;15.942;2023-09-19T02:22:29;20.10;99.90
24412;DHT22;12544;46.760;15.942;2023-09-19T02:24:55;20.10;99.90
24412;DHT22;12544;46.760;15.942;2023-09-19T02:27:23;20.10;99.90
24412;DHT22;12544;46.760;15.942;2023-09-19T02:29:49;20.10;99.90
24412;DHT22;12544;46.760;15.942;2023-09-19T02:32:15;20.10;99.90
24412;DHT22;12544;46.760;15.942;2023-09-19T02:34:43;20.10;99.90
24412;DHT22;12544;46.760;15.942;2023-09-19T02:37:10;20.20;99.90
24412;DHT22;12544;46.760;15.942;2023-09-19T02:39:36;20.20;99.90
24412;DHT22;12544;46.760;15.942;2023-09-19T02:42:01;20.10;99.90
24412;DHT22;12544;46.760;15.942;2023-09-19T02:44:29;20.10;99.90
24412;DHT22;12544;46.760;15.942;2023-09-19T02:46:55;20.00;99.90
24412;DHT22;12544;46.760;15.942;2023-09-19T02:49:23;19.90;99.90
24412;DHT22;12544;46.760;15.942;2023-09-19T02:51:49;19.80;99.90
24412;DHT22;12544;46.760;15.942;2023-09-19T02:54:14;19.70;99.90
24412;DHT22;12544;46.760;15.942;2023-09-19T02:56:41;19.60;99.90
24412;DHT22;12544;46.760;15.942;2023-09-19T02:59:07;19.50;99.90
24412;DHT22;12544;46.760;15.942;2023-09-19T03:01:35;19.40;99.90
24412;DHT22;12544;46.760;15.942;2023-09-19T03:04:03;19.20;99.90
24412;DHT22;12544;46.760;15.942;2023-09-19T03:06:28;19.10;99.90
24412;DHT22;12544;46.760;15.942;2023-09-19T03:08:56;19.00;99.90
24412;DHT22;12544;46.760;15.942;2023-09-19T03:11:22;18.90;99.90
24412;DHT22;12544;46.760;15.942;2023-09-19T03:13:55;18.90;99.90
24412;DHT22;12544;46.760;15.942;2023-09-19T03:16:20;18.80;99.90
24412;DHT22;12544;46.760;15.942;2023-09-19T03:18:50;18.80;99.90
24412;DHT22;12544;46.760;15.942;2023-09-19T03:21:17;18.80;99.90
24412;DHT22;12544;46.760;15.942;2023-09-19T03:23:43;18.70;99.90
24412;DHT22;12544;46.760;15.942;2023-09-19T03:26:13;18.70;99.90
24412;DHT22;12544;46.760;15.942;2023-09-19T03:28:42;18.70;99.90
24412;DHT22;12544;46.760;15.942;2023-09-19T03:31:08;18.50;99.90
24412;DHT22;12544;46.760;15.942;2023-09-19T03:33:34;18.40;99.90
24412;DHT22;12544;46.760;15.942;2023-09-19T03:36:01;18.40;99.90
24412;DHT22;12544;46.760;15.942;2023-09-19T03:38:30;18.40;99.90
24412;DHT22;12544;46.760;15.942;2023-09-19T03:40:56;18.40;99.90
24412;DHT22;12544;46.760;15.942;2023-09-19T03:43:21;18.40;99.90
24412;DHT22;12544;46.760;15.942;2023-09-19T03:45:47;18.40;99.90
24412;DHT22;12544;46.760;15.942;2023-09-19T03:48:14;18.40;99.90
24412;DHT22;12544;46.760;15.942;2023-09-19T03:50:39;18.50;99.90
24412;DHT22;12544;46.760;15.942;2023-09-19T03:53:05;18.40;99.90
24412;DHT22;12544;46.760;15.942;2023-09-19T03:55:33;18.40;99.90
24412;DHT22;12544;46.760;15.942;2023-09-19T03:58:04;18.40;99.90
24412;DHT22;12544;46.760;15.942;2023-09-19T04:00:30;18.30;99.90
24412;DHT22;12544;46.760;15.942;2023-09-19T04:02:55;18.30;99.90
24412;DHT22;12544;46.760;15.942;2023-09-19T04:05:22;18.30;99.90
24412;DHT22;12544;46.760;15.942;2023-09-19T04:07:47;18.20;99.90
24412;DHT22;12544;46.760;15.942;2023-09-19T04:10:13;18.20;99.90
24412;DHT22;12544;46.760;15.942;2023-09-19T04:12:40;18.20;99.90
24412;DHT22;12544;46.760;15.942;2023-09-19T04:15:06;18.20;99.90
24412;DHT22;12544;46.760;15.942;2023-09-19T04:17:32;18.20;99.90
24412;DHT22;12544;46.760;15.942;2023-09-19T04:20:00;18.20;99.90
24412;DHT22;12544;46.760;15.942;2023-09-19T04:22:26;18.20;99.90
24412;DHT22;12544;46.760;15.942;2023-09-19T04:24:52;18.20;99.90
24412;DHT22;12544;46.760;15.942;2023-09-19T04:27:17;18.20;99.90
24412;DHT22;12544;46.760;15.942;2023-09-19T04:29:44;18.20;99.90
24412;DHT22;12544;46.760;15.942;2023-09-19T04:32:10;18.20;99.90
24412;DHT22;12544;46.760;15.942;2023-09-19T04:34:36;18.30;99.90
24412;DHT22;12544;46.760;15.942;2023-09-19T04:37:10;18.20;99.90
24412;DHT22;12544;46.760;15.942;2023-09-19T04:39:36;18.20;99.90
24412;DHT22;12544;46.760;15.942;2023-09-19T04:42:02;18.30;99.90
24412;DHT22;12544;46.760;15.942;2023-09-19T04:44:28;18.30;99.90
24412;DHT22;12544;46.760;15.942;2023-09-19T04:46:54;18.30;99.90
24412;DHT22;12544;46.760;15.942;2023-09-19T04:49:20;18.30;99.90
24412;DHT22;12544;46.760;15.942;2023-09-19T04:51:45;18.30;99.90
24412;DHT22;12544;46.760;15.942;2023-09-19T04:54:12;18.20;99.90
24412;DHT22;12544;46.760;15.942;2023-09-19T04:56:38;18.20;99.90
24412;DHT22;12544;46.760;15.942;2023-09-19T04:59:05;18.20;99.90
24412;DHT22;12544;46.760;15.942;2023-09-19T05:01:33;18.30;99.90
24412;DHT22;12544;46.760;15.942;2023-09-19T05:03:58;18.30;99.90
24412;DHT22;12544;46.760;15.942;2023-09-19T05:06:24;18.40;99.90
24412;DHT22;12544;46.760;15.942;2023-09-19T05:08:51;18.30;99.90
24412;DHT22;12544;46.760;15.942;2023-09-19T05:11:18;18.30;99.90
24412;DHT22;12544;46.760;15.942;2023-09-19T05:13:44;18.30;99.90
24412;DHT22;12544;46.760;15.942;2023-09-19T05:16:10;18.30;99.90
24412;DHT22;12544;46.760;15.942;2023-09-19T05:18:36;18.40;99.90
24412;DHT22;12544;46.760;15.942;2023-09-19T05:21:02;18.40;99.90
24412;DHT22;12544;46.760;15.942;2023-09-19T05:23:28;18.40;99.90
24412;DHT22;12544;46.760;15.942;2023-09-19T05:25:54;18.30;99.90
24412;DHT22;12544;46.760;15.942;2023-09-19T05:28:22;18.30;99.90
24412;DHT22;12544;46.760;15.942;2023-09-19T05:30:47;18.40;99.90
24412;DHT22;12544;46.760;15.942;2023-09-19T05:33:14;18.40;99.90
24412;DHT22;12544;46.760;15.942;2023-09-19T05:35:40;18.40;99.90
24412;DHT22;12544;46.760;15.942;2023-09-19T05:38:07;18.40;99.90
24412;DHT22;12544;46.760;15.942;2023-09-19T05:40:38;18.40;99.90
24412;DHT22;12544;46.760;15.942;2023-09-19T05:43:08;18.40;99.90
24412;DHT22;12544;46.760;15.942;2023-09-19T05:45:34;18.40;99.90
24412;DHT22;12544;46.760;15.942;2023-09-19T05:48:10;18.40;99.90
24412;DHT22;12544;46.760;15.942;2023-09-19T05:50:37;18.30;99.90
24412;DHT22;12544;46.760;15.942;2023-09-19T05:53:03;18.30;99.90
24412;DHT22;12544;46.760;15.942;2023-09-19T05:55:30;18.30;99.90
24412;DHT22;12544;46.760;15.942;2023-09-19T05:57:55;18.40;99.90
24412;DHT22;12544;46.760;15.942;2023-09-19T06:00:22;18.40;99.90
24412;DHT22;12544;46.760;15.942;2023-09-19T06:02:56;18.40;99.90
24412;DHT22;12544;46.760;15.942;2023-09-19T06:05:24;18.40;99.90
24412;DHT22;12544;46.760;15.942;2023-09-19T06:07:50;18.40;99.90
24412;DHT22;12544;46.760;15.942;2023-09-19T06:10:17;18.40;99.90
24412;DHT22;12544;46.760;15.942;2023-09-19T06:12:43;18.50;99.90
24412;DHT22;12544;46.760;15.942;2023-09-19T06:15:10;18.50;99.90
24412;DHT22;12544;46.760;15.942;2023-09-19T06:17:50;18.50;99.90
24412;DHT22;12544;46.760;15.942;2023-09-19T06:20:16;18.50;99.90
24412;DHT22;12544;46.760;15.942;2023-09-19T06:22:43;18.60;99.90
24412;DHT22;12544;46.760;15.942;2023-09-19T06:25:14;18.50;99.90
24412;DHT22;12544;46.760;15.942;2023-09-19T06:27:51;18.50;99.90
24412;DHT22;12544;46.760;15.942;2023-09-19T06:30:19;18.60;99.90
24412;DHT22;12544;46.760;15.942;2023-09-19T06:32:45;18.60;99.90
24412;DHT22;12544;46.760;15.942;2023-09-19T06:35:14;18.60;99.90
24412;DHT22;12544;46.760;15.942;2023-09-19T06:37:41;18.60;99.90
24412;DHT22;12544;46.760;15.942;2023-09-19T06:40:11;18.60;99.90
24412;DHT22;12544;46.760;15.942;2023-09-19T06:42:44;18.70;99.90
24412;DHT22;12544;46.760;15.942;2023-09-19T06:45:14;18.70;99.90
24412;DHT22;12544;46.760;15.942;2023-09-19T06:47:44;18.80;99.90
24412;DHT22;12544;46.760;15.942;2023-09-19T06:50:10;18.90;99.90
24412;DHT22;12544;46.760;15.942;2023-09-19T06:52:42;18.90;99.90
24412;DHT22;12544;46.760;15.942;2023-09-19T06:55:08;18.90;99.90
24412;DHT22;12544;46.760;15.942;2023-09-19T06:57:39;18.90;99.90
24412;DHT22;12544;46.760;15.942;2023-09-19T07:00:12;18.80;99.90
24412;DHT22;12544;46.760;15.942;2023-09-19T07:03:00;18.80;99.90
24412;DHT22;12544;46.760;15.942;2023-09-19T07:05:27;18.80;99.90
24412;DHT22;12544;46.760;15.942;2023-09-19T07:07:53;18.80;99.90
24412;DHT22;12544;46.760;15.942;2023-09-19T07:10:27;18.80;99.90
24412;DHT22;12544;46.760;15.942;2023-09-19T07:13:00;18.70;99.90
24412;DHT22;12544;46.760;15.942;2023-09-19T07:15:27;18.70;99.90
24412;DHT22;12544;46.760;15.942;2023-09-19T07:17:54;18.70;99.90
24412;DHT22;12544;46.760;15.942;2023-09-19T07:20:20;18.60;99.90
24412;DHT22;12544;46.760;15.942;2023-09-19T07:22:46;18.60;99.90
24412;DHT22;12544;46.760;15.942;2023-09-19T07:25:19;18.60;99.90
24412;DHT22;12544;46.760;15.942;2023-09-19T07:27:45;18.60;99.90
24412;DHT22;12544;46.760;15.942;2023-09-19T07:30:10;18.50;99.90
24412;DHT22;12544;46.760;15.942;2023-09-19T07:32:37;18.60;99.90
24412;DHT22;12544;46.760;15.942;2023-09-19T07:35:04;18.50;99.90
24412;DHT22;12544;46.760;15.942;2023-09-19T07:37:31;18.50;99.90
24412;DHT22;12544;46.760;15.942;2023-09-19T07:40:08;18.60;99.90
24412;DHT22;12544;46.760;15.942;2023-09-19T07:42:37;18.70;99.90
24412;DHT22;12544;46.760;15.942;2023-09-19T07:45:07;18.70;99.90
24412;DHT22;12544;46.760;15.942;2023-09-19T07:47:33;18.80;99.90
24412;DHT22;12544;46.760;15.942;2023-09-19T07:50:00;18.80;99.90
24412;DHT22;12544;46.760;15.942;2023-09-19T07:52:28;18.90;99.90
24412;DHT22;12544;46.760;15.942;2023-09-19T07:54:54;18.90;99.90
24412;DHT22;12544;46.760;15.942;2023-09-19T07:57:20;18.90;99.90
24412;DHT22;12544;46.760;15.942;2023-09-19T07:59:46;19.00;99.90
24412;DHT22;12544;46.760;15.942;2023-09-19T08:02:12;19.10;99.90
24412;DHT22;12544;46.760;15.942;2023-09-19T08:04:44;19.10;99.90
24412;DHT22;12544;46.760;15.942;2023-09-19T08:07:12;19.10;99.90
24412;DHT22;12544;46.760;15.942;2023-09-19T08:09:38;19.20;99.90
24412;DHT22;12544;46.760;15.942;2023-09-19T08:12:06;19.20;99.90
24412;DHT22;12544;46.760;15.942;2023-09-19T08:14:33;19.30;99.90
24412;DHT22;12544;46.760;15.942;2023-09-19T08:16:59;19.30;99.90
24412;DHT22;12544;46.760;15.942;2023-09-19T08:19:25;19.40;99.90
24412;DHT22;12544;46.760;15.942;2023-09-19T08:21:59;19.40;99.90
24412;DHT22;12544;46.760;15.942;2023-09-19T08:24:26;19.60;99.90
24412;DHT22;12544;46.760;15.942;2023-09-19T08:26:57;19.70;99.90
24412;DHT22;12544;46.760;15.942;2023-09-19T08:29:26;19.70;99.90
24412;DHT22;12544;46.760;15.942;2023-09-19T08:31:56;19.80;99.90
24412;DHT22;12544;46.760;15.942;2023-09-19T08:34:23;19.80;99.90
24412;DHT22;12544;46.760;15.942;2023-09-19T08:36:53;19.80;99.90
24412;DHT22;12544;46.760;15.942;2023-09-19T08:39:22;19.80;99.90
24412;DHT22;12544;46.760;15.942;2023-09-19T08:41:48;19.90;99.90
24412;DHT22;12544;46.760;15.942;2023-09-19T08:44:13;19.90;99.90
24412;DHT22;12544;46.760;15.942;2023-09-19T08:46:41;20.00;99.90
24412;DHT22;12544;46.760;15.942;2023-09-19T08:49:33;20.20;99.90
24412;DHT22;12544;46.760;15.942;2023-09-19T08:52:20;20.30;99.90
24412;DHT22;12544;46.760;15.942;2023-09-19T08:54:59;20.40;99.90
24412;DHT22;12544;46.760;15.942;2023-09-19T08:57:29;20.30;99.90
24412;DHT22;12544;46.760;15.942;2023-09-19T08:59:55;20.30;99.90
24412;DHT22;12544;46.760;15.942;2023-09-19T09:02:22;20.30;99.90
24412;DHT22;12544;46.760;15.942;2023-09-19T09:04:49;20.40;99.90
24412;DHT22;12544;46.760;15.942;2023-09-19T09:07:16;20.60;99.90
24412;DHT22;12544;46.760;15.942;2023-09-19T09:09:44;20.70;99.90
24412;DHT22;12544;46.760;15.942;2023-09-19T09:12:14;20.70;99.90
24412;DHT22;12544;46.760;15.942;2023-09-19T09:14:44;20.80;99.90
24412;DHT22;12544;46.760;15.942;2023-09-19T09:17:10;20.90;99.90
24412;DHT22;12544;46.760;15.942;2023-09-19T09:19:37;21.20;99.90
24412;DHT22;12544;46.760;15.942;2023-09-19T09:22:10;21.30;99.90
24412;DHT22;12544;46.760;15.942;2023-09-19T09:24:37;21.50;99.90
24412;DHT22;12544;46.760;15.942;2023-09-19T09:27:05;21.60;99.90
24412;DHT22;12544;46.760;15.942;2023-09-19T09:29:46;21.60;99.90
24412;DHT22;12544;46.760;15.942;2023-09-19T09:32:25;21.70;99.90
24412;DHT22;12544;46.760;15.942;2023-09-19T09:34:55;21.60;99.90
24412;DHT22;12544;46.760;15.942;2023-09-19T09:37:38;21.50;99.90
24412;DHT22;12544;46.760;15.942;2023-09-19T09:40:05;21.40;99.90
24412;DHT22;12544;46.760;15.942;2023-09-19T09:42:40;21.20;99.90
24412;DHT22;12544;46.760;15.942;2023-09-19T09:45:20;21.20;99.90
24412;DHT22;12544;46.760;15.942;2023-09-19T09:47:58;21.20;99.90
24412;DHT22;12544;46.760;15.942;2023-09-19T09:50:30;21.50;99.90
24412;DHT22;12544;46.760;15.942;2023-09-19T09:53:19;21.70;99.90
24412;DHT22;12544;46.760;15.942;2023-09-19T09:56:04;21.80;99.90
24412;DHT22;12544;46.760;15.942;2023-09-19T10:01:54;21.90;99.90
24412;DHT22;12544;46.760;15.942;2023-09-19T10:04:29;22.10;99.90
24412;DHT22;12544;46.760;15.942;2023-09-19T10:07:28;22.50;99.90
24412;DHT22;12544;46.760;15.942;2023-09-19T10:09:59;22.70;99.90
24412;DHT22;12544;46.760;15.942;2023-09-19T10:15:54;23.20;99.90
24412;DHT22;12544;46.760;15.942;2023-09-19T10:18:21;23.40;99.90
24412;DHT22;12544;46.760;15.942;2023-09-19T10:20:47;23.70;99.90
24412;DHT22;12544;46.760;15.942;2023-09-19T10:23:17;23.90;99.90
24412;DHT22;12544;46.760;15.942;2023-09-19T10:25:48;23.90;99.90
24412;DHT22;12544;46.760;15.942;2023-09-19T10:28:16;23.90;99.90
24412;DHT22;12544;46.760;15.942;2023-09-19T10:30:46;23.80;99.90
24412;DHT22;12544;46.760;15.942;2023-09-19T10:36:34;23.50;99.90
24412;DHT22;12544;46.760;15.942;2023-09-19T10:39:02;23.60;99.90
24412;DHT22;12544;46.760;15.942;2023-09-19T10:41:32;23.60;99.90
24412;DHT22;12544;46.760;15.942;2023-09-19T10:44:03;23.60;99.90
24412;DHT22;12544;46.760;15.942;2023-09-19T10:46:32;23.60;99.90
24412;DHT22;12544;46.760;15.942;2023-09-19T10:49:01;23.60;99.90
24412;DHT22;12544;46.760;15.942;2023-09-19T10:51:37;23.60;99.90
24412;DHT22;12544;46.760;15.942;2023-09-19T10:54:11;23.60;99.90
24412;DHT22;12544;46.760;15.942;2023-09-19T10:56:43;23.60;99.90
24412;DHT22;12544;46.760;15.942;2023-09-19T10:59:14;23.70;99.90
24412;DHT22;12544;46.760;15.942;2023-09-19T11:01:48;23.80;99.90
24412;DHT22;12544;46.760;15.942;2023-09-19T11:07:13;24.00;99.90
24412;DHT22;12544;46.760;15.942;2023-09-19T11:09:46;24.00;99.90
24412;DHT22;12544;46.760;15.942;2023-09-19T11:14:59;24.70;99.90
24412;DHT22;12544;46.760;15.942;2023-09-19T11:30:38;26.20;99.90
24412;DHT22;12544;46.760;15.942;2023-09-19T11:33:24;26.20;99.90
24412;DHT22;12544;46.760;15.942;2023-09-19T11:36:15;26.00;99.90
24412;DHT22;12544;46.760;15.942;2023-09-19T11:49:19;26.30;99.90
24412;DHT22;12544;46.760;15.942;2023-09-19T11:51:50;26.60;99.90
24412;DHT22;12544;46.760;15.942;2023-09-19T11:54:17;26.90;99.90
24412;DHT22;12544;46.760;15.942;2023-09-19T11:56:51;27.00;99.90
24412;DHT22;12544;46.760;15.942;2023-09-19T11:59:21;27.10;99.90
24412;DHT22;12544;46.760;15.942;2023-09-19T12:01:53;27.00;99.90
24412;DHT22;12544;46.760;15.942;2023-09-19T12:04:41;26.70;99.90
24412;DHT22;12544;46.760;15.942;2023-09-19T12:07:13;26.50;99.90
24412;DHT22;12544;46.760;15.942;2023-09-19T12:09:41;26.20;99.90
24412;DHT22;12544;46.760;15.942;2023-09-19T12:12:23;26.20;99.90
24412;DHT22;12544;46.760;15.942;2023-09-19T12:14:53;26.30;99.90
24412;DHT22;12544;46.760;15.942;2023-09-19T12:17:19;26.80;99.90
24412;DHT22;12544;46.760;15.942;2023-09-19T12:19:52;26.90;99.90
24412;DHT22;12544;46.760;15.942;2023-09-19T12:25:43;26.80;99.90
24412;DHT22;12544;46.760;15.942;2023-09-19T12:28:18;26.80;99.90
24412;DHT22;12544;46.760;15.942;2023-09-19T12:30:49;27.20;99.90
24412;DHT22;12544;46.760;15.942;2023-09-19T12:33:16;27.40;99.90
24412;DHT22;12544;46.760;15.942;2023-09-19T12:35:45;27.00;99.90
24412;DHT22;12544;46.760;15.942;2023-09-19T12:38:11;26.60;99.90
24412;DHT22;12544;46.760;15.942;2023-09-19T12:40:38;26.40;99.90
24412;DHT22;12544;46.760;15.942;2023-09-19T12:43:38;26.20;99.90
24412;DHT22;12544;46.760;15.942;2023-09-19T12:46:07;25.90;99.90
24412;DHT22;12544;46.760;15.942;2023-09-19T12:48:33;25.90;99.90
24412;DHT22;12544;46.760;15.942;2023-09-19T12:51:09;25.90;99.90
24412;DHT22;12544;46.760;15.942;2023-09-19T12:53:42;26.10;99.90
24412;DHT22;12544;46.760;15.942;2023-09-19T12:56:10;26.30;99.90
24412;DHT22;12544;46.760;15.942;2023-09-19T12:58:52;26.50;99.90
24412;DHT22;12544;46.760;15.942;2023-09-19T13:01:19;26.70;99.90
24412;DHT22;12544;46.760;15.942;2023-09-19T13:03:45;26.70;99.90
24412;DHT22;12544;46.760;15.942;2023-09-19T13:06:11;26.60;99.90
24412;DHT22;12544;46.760;15.942;2023-09-19T13:08:39;26.40;99.90
24412;DHT22;12544;46.760;15.942;2023-09-19T13:11:14;26.10;99.90
24412;DHT22;12544;46.760;15.942;2023-09-19T13:13:48;25.90;99.90
24412;DHT22;12544;46.760;15.942;2023-09-19T13:16:16;25.60;99.90
24412;DHT22;12544;46.760;15.942;2023-09-19T13:18:55;25.50;99.90
24412;DHT22;12544;46.760;15.942;2023-09-19T13:21:31;25.50;99.90
24412;DHT22;12544;46.760;15.942;2023-09-19T13:24:23;25.40;99.90
24412;DHT22;12544;46.760;15.942;2023-09-19T13:30:14;25.30;99.90
24412;DHT22;12544;46.760;15.942;2023-09-19T13:32:41;25.50;99.90
24412;DHT22;12544;46.760;15.942;2023-09-19T13:35:08;25.80;99.90
24412;DHT22;12544;46.760;15.942;2023-09-19T13:37:39;26.20;99.90
24412;DHT22;12544;46.760;15.942;2023-09-19T13:40:09;26.70;99.90
24412;DHT22;12544;46.760;15.942;2023-09-19T13:42:35;27.00;99.90
24412;DHT22;12544;46.760;15.942;2023-09-19T13:45:05;27.50;99.90
24412;DHT22;12544;46.760;15.942;2023-09-19T13:47:49;27.70;99.90
24412;DHT22;12544;46.760;15.942;2023-09-19T13:50:15;27.60;99.70
24412;DHT22;12544;46.760;15.942;2023-09-19T13:52:42;27.40;99.80
24412;DHT22;12544;46.760;15.942;2023-09-19T13:55:08;27.30;98.80
24412;DHT22;12544;46.760;15.942;2023-09-19T13:57:33;27.20;98.90
24412;DHT22;12544;46.760;15.942;2023-09-19T13:59:59;27.30;98.30
24412;DHT22;12544;46.760;15.942;2023-09-19T14:02:25;27.40;98.60
24412;DHT22;12544;46.760;15.942;2023-09-19T14:04:54;27.40;98.30
24412;DHT22;12544;46.760;15.942;2023-09-19T14:07:20;27.50;99.50
24412;DHT22;12544;46.760;15.942;2023-09-19T14:09:53;27.80;98.40
24412;DHT22;12544;46.760;15.942;2023-09-19T14:12:18;28.00;97.40
24412;DHT22;12544;46.760;15.942;2023-09-19T14:14:44;28.20;97.60
24412;DHT22;12544;46.760;15.942;2023-09-19T14:17:10;28.30;97.00
24412;DHT22;12544;46.760;15.942;2023-09-19T14:19:36;28.50;97.60
24412;DHT22;12544;46.760;15.942;2023-09-19T14:22:02;28.60;97.30
24412;DHT22;12544;46.760;15.942;2023-09-19T14:27:50;28.40;98.00
24412;DHT22;12544;46.760;15.942;2023-09-19T14:30:15;28.50;98.00
24412;DHT22;12544;46.760;15.942;2023-09-19T14:32:41;28.60;98.00
24412;DHT22;12544;46.760;15.942;2023-09-19T14:35:07;28.60;96.40
24412;DHT22;12544;46.760;15.942;2023-09-19T14:37:35;28.10;97.10
24412;DHT22;12544;46.760;15.942;2023-09-19T14:40:00;27.60;97.70
24412;DHT22;12544;46.760;15.942;2023-09-19T14:42:28;27.40;98.20
24412;DHT22;12544;46.760;15.942;2023-09-19T14:44:54;27.20;98.60
24412;DHT22;12544;46.760;15.942;2023-09-19T14:47:20;27.10;98.70
24412;DHT22;12544;46.760;15.942;2023-09-19T14:49:46;27.10;98.40
24412;DHT22;12544;46.760;15.942;2023-09-19T14:52:12;27.20;99.20
24412;DHT22;12544;46.760;15.942;2023-09-19T14:54:40;27.00;98.60
24412;DHT22;12544;46.760;15.942;2023-09-19T14:57:16;26.70;98.80
24412;DHT22;12544;46.760;15.942;2023-09-19T14:59:41;26.40;99.70
24412;DHT22;12544;46.760;15.942;2023-09-19T15:02:07;26.00;99.50
24412;DHT22;12544;46.760;15.942;2023-09-19T15:04:33;25.70;99.90
24412;DHT22;12544;46.760;15.942;2023-09-19T15:06:59;25.40;99.90
24412;DHT22;12544;46.760;15.942;2023-09-19T15:09:25;25.10;99.90
24412;DHT22;12544;46.760;15.942;2023-09-19T15:11:55;24.90;99.90
24412;DHT22;12544;46.760;15.942;2023-09-19T15:14:24;24.80;99.90
24412;DHT22;12544;46.760;15.942;2023-09-19T15:16:55;24.60;99.90
24412;DHT22;12544;46.760;15.942;2023-09-19T15:19:20;24.60;99.90
24412;DHT22;12544;46.760;15.942;2023-09-19T15:21:50;24.60;99.90
24412;DHT22;12544;46.760;15.942;2023-09-19T15:24:16;24.50;99.90
24412;DHT22;12544;46.760;15.942;2023-09-19T15:26:43;24.40;99.90
24412;DHT22;12544;46.760;15.942;2023-09-19T15:29:10;24.40;99.90
24412;DHT22;12544;46.760;15.942;2023-09-19T15:31:37;24.30;99.90
24412;DHT22;12544;46.760;15.942;2023-09-19T15:34:04;24.40;99.90
24412;DHT22;12544;46.760;15.942;2023-09-19T15:36:30;24.40;99.90
24412;DHT22;12544;46.760;15.942;2023-09-19T15:39:04;24.50;99.90
24412;DHT22;12544;46.760;15.942;2023-09-19T15:41:41;24.50;99.90
24412;DHT22;12544;46.760;15.942;2023-09-19T15:44:15;24.60;99.90
24412;DHT22;12544;46.760;15.942;2023-09-19T15:46:41;24.50;99.90
24412;DHT22;12544;46.760;15.942;2023-09-19T15:49:07;24.50;99.90
24412;DHT22;12544;46.760;15.942;2023-09-19T15:51:33;24.40;99.90
24412;DHT22;12544;46.760;15.942;2023-09-19T15:53:59;24.40;99.90
24412;DHT22;12544;46.760;15.942;2023-09-19T15:56:28;24.40;99.90
24412;DHT22;12544;46.760;15.942;2023-09-19T15:58:55;24.30;99.90
24412;DHT22;12544;46.760;15.942;2023-09-19T16:01:21;24.30;99.90
24412;DHT22;12544;46.760;15.942;2023-09-19T16:03:48;24.20;99.90
24412;DHT22;12544;46.760;15.942;2023-09-19T16:06:19;24.20;99.90
24412;DHT22;12544;46.760;15.942;2023-09-19T16:08:49;24.10;99.90
24412;DHT22;12544;46.760;15.942;2023-09-19T16:11:15;24.10;99.90
24412;DHT22;12544;46.760;15.942;2023-09-19T16:13:42;24.10;99.90
24412;DHT22;12544;46.760;15.942;2023-09-19T16:16:09;24.10;99.90
24412;DHT22;12544;46.760;15.942;2023-09-19T16:18:39;24.00;99.90
24412;DHT22;12544;46.760;15.942;2023-09-19T16:21:05;24.00;99.90
24412;DHT22;12544;46.760;15.942;2023-09-19T16:23:33;23.80;99.90
24412;DHT22;12544;46.760;15.942;2023-09-19T16:26:03;23.70;99.90
24412;DHT22;12544;46.760;15.942;2023-09-19T16:28:32;23.60;99.90
24412;DHT22;12544;46.760;15.942;2023-09-19T16:31:00;23.50;99.90